Terminal Aerodrome Forecast
Issued by NWS Paducah, KY

Home | Current Version | Previous Version | Text Only | Print | Product List | Glossary On
Versions: 1 2 3 4 5 6 7 8 9 10 11 12 13 14 15
000
FTUS43 KPAH 120520
TAFEVV
TAF
KEVV 120520Z 1206/1306 31015G25KT P6SM SCT020 BKN040
      TEMPO 1207/1211 BKN020
     FM121600 31014G22KT P6SM SCT250
     FM130000 VRB05KT P6SM SCT150=

USA.gov is the U.S. government's official web portal to all federal, state and local government web resources and services.